Time;durP1;ratioP1;P1;durP2;ratioP2;P2;SDS_P1;SDS_P2;PMS_P1;PMS_P2;Temp;Humidity;BMP_temperature;BMP_pressure;BME280_temperature;BME280_humidity;BME280_pressure;Samples;Min_cycle;Max_cycle;Signal;HPM_P1;HPM_P2
2023/10/31 00:02:07;;;;;;;8.30;4.68;;;;;;;12.80;53.98;95176.59;5049042;28;20077;-86
2023/10/31 00:04:33;;;;;;;8.40;5.05;;;;;;;12.77;54.12;95175.50;5066670;28;20041;-86
2023/10/31 00:06:58;;;;;;;10.98;4.50;;;;;;;12.76;53.94;95175.94;5075647;28;20025;-86
2023/10/31 00:09:24;;;;;;;9.45;4.80;;;;;;;12.69;54.16;95170.69;5066239;28;20030;-85
2023/10/31 00:11:49;;;;;;;8.68;5.50;;;;;;;12.64;54.40;95172.00;5047533;28;20036;-86
2023/10/31 00:14:15;;;;;;;9.25;5.10;;;;;;;12.63;54.44;95164.19;5045069;28;20493;-86
2023/10/31 00:16:40;;;;;;;10.65;5.68;;;;;;;12.61;54.44;95163.84;5054525;28;20025;-86
2023/10/31 00:19:06;;;;;;;8.80;5.18;;;;;;;12.61;54.53;95159.09;5063212;28;20056;-86
2023/10/31 00:21:31;;;;;;;10.85;5.15;;;;;;;12.62;54.56;95160.66;5046790;28;20120;-86
2023/10/31 00:23:56;;;;;;;6.55;4.22;;;;;;;12.58;54.77;95165.50;5062923;28;20411;-86
2023/10/31 00:26:22;;;;;;;8.15;4.35;;;;;;;12.56;54.50;95156.13;5047308;28;20025;-86
2023/10/31 00:28:47;;;;;;;10.95;6.03;;;;;;;12.52;54.89;95147.22;5063560;28;20033;-86
2023/10/31 00:31:14;;;;;;;12.95;7.13;;;;;;;12.46;55.00;95144.25;5062508;28;20025;-85
2023/10/31 00:33:39;;;;;;;14.75;7.45;;;;;;;12.46;54.95;95141.50;5046024;28;20021;-83
2023/10/31 00:36:05;;;;;;;9.82;5.72;;;;;;;12.47;54.58;95148.53;5027739;28;20112;-85
2023/10/31 00:38:30;;;;;;;11.25;4.75;;;;;;;12.38;55.16;95146.44;5047273;28;20425;-85
2023/10/31 00:40:55;;;;;;;8.20;4.18;;;;;;;12.38;54.82;95148.44;5062173;28;20446;-86
2023/10/31 00:43:21;;;;;;;9.43;4.43;;;;;;;12.36;55.15;95148.13;5065318;28;20054;-86
2023/10/31 00:45:46;;;;;;;9.68;4.93;;;;;;;12.39;55.40;95139.75;5050404;28;20021;-86
2023/10/31 00:48:12;;;;;;;11.23;4.97;;;;;;;12.30;54.86;95138.88;5065180;28;20082;-86
2023/10/31 00:50:37;;;;;;;9.90;4.50;;;;;;;12.31;55.68;95140.41;5049308;28;20108;-86
2023/10/31 00:53:02;;;;;;;8.35;4.50;;;;;;;12.29;55.90;95138.09;5047811;28;20028;-86
2023/10/31 00:55:28;;;;;;;8.10;4.25;;;;;;;12.33;55.78;95126.94;5053108;28;20143;-86
2023/10/31 00:57:53;;;;;;;6.90;4.13;;;;;;;12.33;56.06;95138.75;5044672;28;20400;-85
2023/10/31 01:00:19;;;;;;;9.45;4.93;;;;;;;12.38;56.09;95129.91;5028245;28;20068;-86
2023/10/31 01:02:44;;;;;;;7.85;4.50;;;;;;;12.36;55.95;95126.06;5011322;28;20025;-86
2023/10/31 01:05:10;;;;;;;10.75;4.80;;;;;;;12.36;56.03;95126.84;5029447;28;20104;-85
2023/10/31 01:07:36;;;;;;;8.52;5.20;;;;;;;12.32;56.20;95125.41;5028648;28;20100;-85
2023/10/31 01:10:03;;;;;;;13.93;7.18;;;;;;;12.28;56.28;95119.25;5029000;28;20468;-86
2023/10/31 01:12:28;;;;;;;12.13;6.72;;;;;;;12.20;56.36;95118.69;5028709;28;20033;-86
2023/10/31 01:14:54;;;;;;;13.27;6.07;;;;;;;12.21;56.33;95114.72;5044134;28;20025;-85
2023/10/31 01:17:20;;;;;;;9.75;5.72;;;;;;;12.14;56.23;95121.22;5045076;28;20057;-86
2023/10/31 01:19:46;;;;;;;12.55;7.30;;;;;;;12.13;57.08;95116.16;5027541;28;20126;-86
2023/10/31 01:22:11;;;;;;;9.95;6.65;;;;;;;12.00;57.28;95112.66;5028192;28;20503;-85
2023/10/31 01:24:37;;;;;;;8.95;6.05;;;;;;;12.05;56.86;95106.59;5027833;28;20488;-85
2023/10/31 01:27:02;;;;;;;8.02;5.43;;;;;;;12.04;56.70;95110.53;5044172;28;20506;-85
2023/10/31 01:29:28;;;;;;;8.27;5.10;;;;;;;12.00;56.19;95104.41;5028182;28;20029;-85
2023/10/31 01:31:53;;;;;;;10.73;5.93;;;;;;;11.95;56.06;95098.22;5028473;28;20026;-85
2023/10/31 01:34:19;;;;;;;11.13;6.22;;;;;;;11.93;56.84;95099.88;5031221;28;20026;-85
2023/10/31 01:36:44;;;;;;;8.55;5.93;;;;;;;11.88;56.94;95106.72;5029041;28;20146;-86
2023/10/31 01:39:10;;;;;;;10.88;6.93;;;;;;;11.97;57.36;95106.03;5012467;28;20037;-86
2023/10/31 01:41:36;;;;;;;10.70;6.00;;;;;;;11.91;57.19;95097.56;5045422;28;20033;-84
2023/10/31 01:44:01;;;;;;;8.23;6.20;;;;;;;11.90;56.76;95104.28;5046392;28;20105;-86
2023/10/31 01:46:27;;;;;;;9.82;5.90;;;;;;;11.91;56.85;95097.56;5046636;28;20478;-85
2023/10/31 01:48:53;;;;;;;10.45;6.32;;;;;;;11.88;56.38;95092.94;5029523;28;20154;-85
2023/10/31 01:51:18;;;;;;;8.70;4.80;;;;;;;11.92;56.07;95101.84;5030838;28;20045;-85
2023/10/31 01:53:44;;;;;;;10.07;5.63;;;;;;;11.88;56.14;95105.94;5031719;28;20030;-83
2023/10/31 01:56:09;;;;;;;10.63;5.35;;;;;;;11.83;56.15;95099.00;5032634;28;20029;-84
2023/10/31 01:58:36;;;;;;;11.82;6.10;;;;;;;11.75;56.21;95091.34;5031291;28;20049;-83
2023/10/31 02:01:02;;;;;;;7.63;4.80;;;;;;;11.72;56.47;95095.00;5046877;28;20052;-84
2023/10/31 02:03:28;;;;;;;10.32;5.78;;;;;;;11.67;56.51;95091.56;5045450;28;20021;-84
2023/10/31 02:05:54;;;;;;;7.38;5.05;;;;;;;11.60;56.47;95089.03;5028605;28;20128;-84
2023/10/31 02:08:20;;;;;;;10.32;5.82;;;;;;;11.64;57.00;95084.22;5047085;28;20029;-85
2023/10/31 02:10:45;;;;;;;10.93;6.07;;;;;;;11.61;57.11;95084.31;5052942;28;20021;-86
2023/10/31 02:13:15;;;;;;;10.95;6.40;;;;;;;11.49;57.57;95094.09;5044919;28;20058;-86
2023/10/31 02:15:41;;;;;;;8.75;6.13;;;;;;;11.42;58.57;95084.06;5046977;28;20484;-86
2023/10/31 02:18:07;;;;;;;10.68;6.40;;;;;;;11.46;58.41;95094.97;5027915;28;20108;-86
2023/10/31 02:20:32;;;;;;;9.80;5.90;;;;;;;11.31;59.03;95093.84;5044083;28;20429;-86
2023/10/31 02:22:58;;;;;;;8.23;6.07;;;;;;;11.33;58.93;95092.19;5027920;28;20029;-86
2023/10/31 02:25:23;;;;;;;10.27;6.30;;;;;;;11.30;58.79;95076.56;5011386;28;20138;-86
2023/10/31 02:27:48;;;;;;;13.43;5.93;;;;;;;11.32;58.73;95070.63;5044433;28;20040;-85
2023/10/31 02:30:14;;;;;;;12.88;5.95;;;;;;;11.34;58.81;95081.97;5028833;28;20030;-85
2023/10/31 02:32:40;;;;;;;9.80;5.80;;;;;;;11.37;58.44;95084.63;5028868;28;20033;-85
2023/10/31 02:35:06;;;;;;;10.27;6.15;;;;;;;11.34;58.26;95073.69;5045648;28;20085;-84
2023/10/31 02:37:32;;;;;;;11.35;5.90;;;;;;;11.28;58.37;95076.22;5029799;28;20029;-84
2023/10/31 02:39:58;;;;;;;13.48;6.00;;;;;;;11.27;58.36;95077.44;5034005;28;20026;-85
2023/10/31 02:42:24;;;;;;;9.60;5.90;;;;;;;11.29;58.29;95086.00;5051105;28;20021;-85
2023/10/31 02:44:49;;;;;;;13.00;6.00;;;;;;;11.22;58.51;95080.72;5046922;28;20423;-86
2023/10/31 02:47:15;;;;;;;8.68;5.95;;;;;;;11.17;59.31;95084.00;5047750;28;20061;-85
2023/10/31 02:49:40;;;;;;;12.75;5.72;;;;;;;11.21;58.80;95087.44;5044236;28;20033;-86
2023/10/31 02:52:05;;;;;;;12.57;5.82;;;;;;;11.21;58.50;95097.69;5028508;28;20018;-86
2023/10/31 02:54:31;;;;;;;8.30;5.95;;;;;;;11.16;58.59;95099.00;5026981;28;20500;-84
2023/10/31 02:56:58;;;;;;;9.82;5.60;;;;;;;11.15;58.57;95080.94;5044628;28;20029;-85
2023/10/31 02:59:23;;;;;;;9.18;5.57;;;;;;;11.16;58.66;95099.75;5027314;28;20018;-86
2023/10/31 03:01:49;;;;;;;11.02;6.05;;;;;;;11.10;58.80;95087.75;5027631;28;20464;-85
2023/10/31 03:04:14;;;;;;;11.90;5.90;;;;;;;11.06;58.54;95078.03;5027316;28;20025;-86
2023/10/31 03:06:39;;;;;;;11.30;5.18;;;;;;;11.03;58.62;95098.19;5026417;28;20025;-84
2023/10/31 03:09:06;;;;;;;8.95;5.72;;;;;;;11.02;58.85;95091.16;5027546;28;20021;-85
2023/10/31 03:11:32;;;;;;;13.30;5.53;;;;;;;10.98;58.59;95095.97;5025994;28;20025;-84
2023/10/31 03:13:58;;;;;;;8.75;4.85;;;;;;;10.95;58.26;95094.06;5044136;28;20499;-85
2023/10/31 03:16:24;;;;;;;14.02;5.68;;;;;;;10.97;58.44;95078.69;5026972;28;20025;-85
2023/10/31 03:18:49;;;;;;;9.48;5.60;;;;;;;10.96;58.25;95092.91;5027062;28;20057;-85
2023/10/31 03:21:15;;;;;;;9.48;5.07;;;;;;;10.92;58.28;95089.47;5010020;28;20542;-85
2023/10/31 03:23:42;;;;;;;12.10;5.78;;;;;;;10.80;59.03;95071.72;5026925;28;20650;-85
2023/10/31 03:26:07;;;;;;;11.95;5.68;;;;;;;10.80;59.09;95060.72;5027262;28;20025;-85
2023/10/31 03:28:32;;;;;;;14.07;6.30;;;;;;;10.78;58.97;95052.09;5028103;28;20212;-85
2023/10/31 03:30:58;;;;;;;11.73;6.28;;;;;;;10.77;59.15;95076.09;5011061;28;20068;-85
2023/10/31 03:33:23;;;;;;;9.75;6.40;;;;;;;10.61;59.48;95071.44;5027852;28;20034;-84
2023/10/31 03:35:49;;;;;;;9.38;5.70;;;;;;;10.59;59.71;95057.31;5028605;28;20117;-85
2023/10/31 03:38:14;;;;;;;13.18;5.88;;;;;;;10.60;59.92;95069.09;5026418;28;20026;-85
2023/10/31 03:40:40;;;;;;;13.05;6.10;;;;;;;10.58;59.49;95060.50;5010188;28;20040;-86
2023/10/31 03:43:05;;;;;;;11.10;6.57;;;;;;;10.63;59.69;95081.97;5026607;28;20029;-85
2023/10/31 03:45:31;;;;;;;11.75;6.22;;;;;;;10.61;59.98;95074.19;5010262;28;20033;-86
2023/10/31 03:47:56;;;;;;;10.45;7.00;;;;;;;10.59;59.90;95079.31;5044141;28;20447;-86
2023/10/31 03:50:22;;;;;;;15.27;6.82;;;;;;;10.60;59.98;95072.63;5027541;28;20488;-86
2023/10/31 03:52:47;;;;;;;10.18;7.07;;;;;;;10.58;60.38;95069.53;5044171;28;20042;-85
2023/10/31 03:55:13;;;;;;;10.07;6.53;;;;;;;10.56;60.32;95069.19;5022635;28;20034;-86
2023/10/31 03:57:38;;;;;;;10.63;6.60;;;;;;;10.57;60.31;95070.75;5007333;28;20064;-85
2023/10/31 04:00:07;;;;;;;16.05;7.85;;;;;;;10.58;60.05;95053.03;5008294;28;20429;-85
2023/10/31 04:02:32;;;;;;;15.18;7.05;;;;;;;10.57;60.18;95065.25;5011339;28;20508;-86
2023/10/31 04:04:57;;;;;;;12.65;6.88;;;;;;;10.55;60.26;95066.88;5011798;28;20033;-85
2023/10/31 04:07:23;;;;;;;13.27;7.80;;;;;;;10.52;60.93;95059.50;5042648;28;20060;-86
2023/10/31 04:09:48;;;;;;;13.13;7.18;;;;;;;10.56;60.89;95054.69;5046454;28;20400;-87
2023/10/31 04:12:13;;;;;;;11.40;7.13;;;;;;;10.49;60.77;95060.34;5045873;28;20057;-87
2023/10/31 04:14:39;;;;;;;11.63;6.90;;;;;;;10.40;60.74;95061.00;5063675;28;20372;-87
2023/10/31 04:17:04;;;;;;;12.65;7.20;;;;;;;10.39;60.92;95044.94;5065937;28;20469;-88
2023/10/31 04:19:30;;;;;;;13.05;7.20;;;;;;;10.28;60.60;95040.50;5069534;28;20102;-89
2023/10/31 04:21:55;;;;;;;12.10;7.35;;;;;;;10.30;60.54;95049.06;5050993;28;20021;-88
2023/10/31 04:24:21;;;;;;;14.27;7.22;;;;;;;10.08;61.67;95045.28;5051164;28;20464;-89
2023/10/31 04:26:46;;;;;;;14.00;7.15;;;;;;;10.09;61.67;95049.56;5066503;28;20460;-86
2023/10/31 04:29:11;;;;;;;14.52;7.60;;;;;;;10.05;61.53;95046.16;5048966;28;20036;-86
2023/10/31 04:31:37;;;;;;;14.25;7.57;;;;;;;10.06;61.53;95050.44;5029659;28;20519;-86
2023/10/31 04:34:02;;;;;;;11.77;7.03;;;;;;;10.15;61.71;95049.81;5018082;28;20109;-88
2023/10/31 04:36:28;;;;;;;14.60;6.45;;;;;;;10.14;62.09;95042.78;5030349;28;20156;-87
2023/10/31 04:38:53;;;;;;;14.30;7.00;;;;;;;10.10;61.54;95031.91;5040045;28;20025;-87
2023/10/31 04:41:19;;;;;;;11.45;6.50;;;;;;;10.08;61.50;95046.06;5019611;28;20376;-87
2023/10/31 04:43:45;;;;;;;13.07;7.97;;;;;;;10.13;61.24;95064.00;5018683;28;20054;-86
2023/10/31 04:46:11;;;;;;;11.00;7.22;;;;;;;10.04;61.04;95050.13;5026512;28;20029;-84
2023/10/31 04:48:36;;;;;;;11.98;6.75;;;;;;;10.14;61.31;95067.50;5017897;28;20485;-87
2023/10/31 04:51:02;;;;;;;12.70;7.47;;;;;;;10.13;61.59;95077.72;5027862;28;20026;-87
2023/10/31 04:53:27;;;;;;;11.52;7.50;;;;;;;10.11;61.78;95077.41;5014694;28;20072;-88
2023/10/31 04:55:53;;;;;;;16.85;7.78;;;;;;;10.01;61.79;95072.94;5028709;28;20026;-88
2023/10/31 04:58:18;;;;;;;14.82;8.85;;;;;;;10.04;61.85;95063.84;5021762;28;20554;-88
2023/10/31 05:00:44;;;;;;;13.05;8.32;;;;;;;10.05;61.97;95073.63;5012576;28;20461;-87
2023/10/31 05:03:10;;;;;;;20.02;9.52;;;;;;;9.97;62.25;95069.50;5040760;28;20555;-88
2023/10/31 05:05:35;;;;;;;18.67;10.35;;;;;;;9.98;62.16;95073.81;5020284;28;20033;-86
2023/10/31 05:08:00;;;;;;;17.67;8.50;;;;;;;9.96;62.29;95063.22;5008488;28;20033;-89
2023/10/31 05:10:26;;;;;;;19.90;9.73;;;;;;;9.98;62.05;95062.81;5016700;28;20045;-87
2023/10/31 05:12:52;;;;;;;23.85;10.57;;;;;;;10.03;61.96;95054.81;5020618;28;20071;-86
2023/10/31 05:15:18;;;;;;;17.13;10.15;;;;;;;10.02;61.84;95064.25;5025572;28;20087;-86
2023/10/31 05:17:43;;;;;;;16.73;10.30;;;;;;;9.98;62.33;95060.06;5027978;28;20021;-86
2023/10/31 05:20:09;;;;;;;16.95;9.35;;;;;;;9.94;62.54;95059.38;5029524;28;20570;-86
2023/10/31 05:22:36;;;;;;;12.52;9.70;;;;;;;9.93;62.80;95074.31;5010046;28;20646;-86
2023/10/31 05:25:02;;;;;;;26.38;10.05;;;;;;;9.93;62.71;95066.84;5019940;28;20104;-84
2023/10/31 05:27:28;;;;;;;15.20;9.10;;;;;;;9.94;62.74;95064.88;5026245;28;20117;-86
2023/10/31 05:29:54;;;;;;;15.30;8.85;;;;;;;9.93;62.80;95071.56;5028713;28;20025;-84
2023/10/31 05:32:19;;;;;;;16.20;9.48;;;;;;;10.01;62.74;95075.69;5022397;28;20408;-86
2023/10/31 05:34:44;;;;;;;13.57;7.88;;;;;;;10.02;62.80;95078.00;5007940;28;20083;-88
2023/10/31 05:37:10;;;;;;;14.25;8.20;;;;;;;10.00;62.57;95077.66;5036855;28;20413;-88
2023/10/31 05:39:36;;;;;;;12.30;7.85;;;;;;;10.06;62.52;95080.66;5047876;28;20094;-87
2023/10/31 05:42:02;;;;;;;13.85;8.90;;;;;;;10.07;62.41;95080.22;5043859;28;20025;-88
2023/10/31 05:44:28;;;;;;;16.38;8.68;;;;;;;10.14;62.21;95089.50;5065378;28;20024;-87
2023/10/31 05:46:54;;;;;;;18.45;9.55;;;;;;;10.14;61.98;95087.50;5030995;28;20025;-87
2023/10/31 05:49:19;;;;;;;14.63;8.68;;;;;;;10.17;62.07;95103.16;5064691;28;20025;-89
2023/10/31 05:51:49;;;;;;;18.50;8.80;;;;;;;10.17;61.96;95099.63;5047058;28;20377;-84
2023/10/31 05:54:14;;;;;;;17.75;7.95;;;;;;;10.20;61.94;95109.75;5065305;28;20084;-85
2023/10/31 05:56:40;;;;;;;17.55;8.43;;;;;;;10.23;61.94;95098.72;5032159;28;20033;-87
2023/10/31 05:59:05;;;;;;;18.83;10.52;;;;;;;10.29;61.96;95110.72;5028397;28;20052;-86
2023/10/31 06:01:31;;;;;;;18.85;11.30;;;;;;;10.30;61.92;95114.25;5027385;28;20212;-88
2023/10/31 06:03:56;;;;;;;17.60;10.60;;;;;;;10.34;61.45;95114.94;5027657;28;20033;-87
2023/10/31 06:06:21;;;;;;;18.85;10.82;;;;;;;10.43;60.86;95117.06;5029375;28;20120;-88
2023/10/31 06:08:47;;;;;;;23.20;11.15;;;;;;;10.42;60.79;95123.75;5028508;28;20061;-87
2023/10/31 06:11:12;;;;;;;19.05;10.35;;;;;;;10.43;61.11;95123.31;5029230;28;20364;-87
2023/10/31 06:13:39;;;;;;;20.30;9.50;;;;;;;10.49;61.07;95127.09;5043293;28;20087;-88
2023/10/31 06:16:05;;;;;;;14.75;9.05;;;;;;;10.52;61.10;95129.00;5028988;28;20021;-87
2023/10/31 06:18:31;;;;;;;15.95;9.27;;;;;;;10.54;61.19;95121.06;5028196;28;20041;-86
2023/10/31 06:20:56;;;;;;;16.67;9.30;;;;;;;10.59;61.11;95111.53;5028619;28;20125;-87
2023/10/31 06:23:22;;;;;;;15.65;9.52;;;;;;;10.64;61.00;95114.53;5033927;28;20021;-88
2023/10/31 06:25:48;;;;;;;16.80;8.73;;;;;;;10.69;60.99;95113.25;5029320;28;20025;-86
2023/10/31 06:28:13;;;;;;;17.15;9.02;;;;;;;10.79;60.78;95122.41;5028090;28;20439;-86
2023/10/31 06:30:38;;;;;;;15.55;9.10;;;;;;;10.79;60.99;95105.91;5009998;28;20450;-87
2023/10/31 06:33:04;;;;;;;16.92;9.73;;;;;;;10.82;60.85;95130.56;5027498;28;20029;-87
2023/10/31 06:35:29;;;;;;;17.77;10.57;;;;;;;10.94;60.81;95123.56;5042955;28;20036;-86
2023/10/31 06:37:59;;;;;;;17.85;10.38;;;;;;;11.03;60.43;95107.22;5028505;28;20120;-87
2023/10/31 06:40:25;;;;;;;15.35;9.73;;;;;;;11.08;60.39;95108.66;5026138;28;20036;-87
2023/10/31 06:42:51;;;;;;;19.63;12.10;;;;;;;11.11;60.31;95110.53;5026672;28;20111;-87
2023/10/31 06:45:16;;;;;;;16.42;10.00;;;;;;;11.24;60.13;95114.09;5043842;28;20539;-87
2023/10/31 06:47:42;;;;;;;18.63;11.10;;;;;;;11.31;60.02;95102.88;5042758;28;20026;-87
2023/10/31 06:50:08;;;;;;;15.45;10.70;;;;;;;11.42;59.87;95092.34;5027122;28;20526;-87
2023/10/31 06:52:33;;;;;;;16.98;9.73;;;;;;;11.51;59.91;95096.41;5009598;28;20585;-86
2023/10/31 06:54:59;;;;;;;15.40;10.18;;;;;;;11.59;59.41;95106.00;5030748;28;20075;-85
2023/10/31 06:57:24;;;;;;;18.10;9.60;;;;;;;11.64;59.54;95106.25;5044859;28;20032;-87
2023/10/31 06:59:49;;;;;;;14.75;10.00;;;;;;;11.81;59.48;95104.16;5033306;28;20034;-87
2023/10/31 07:02:15;;;;;;;16.38;9.98;;;;;;;11.88;59.19;95103.19;5026289;28;20018;-87
2023/10/31 07:04:40;;;;;;;14.55;8.88;;;;;;;12.06;59.21;95108.91;5026216;28;20022;-88
2023/10/31 07:07:06;;;;;;;19.92;9.65;;;;;;;12.21;58.94;95114.72;5027156;28;20025;-87
2023/10/31 07:09:31;;;;;;;16.35;9.27;;;;;;;12.30;58.78;95101.03;5042735;28;20033;-86
2023/10/31 07:11:57;;;;;;;11.48;8.93;;;;;;;12.43;58.78;95092.75;5044713;28;20018;-87
2023/10/31 07:14:22;;;;;;;12.30;7.95;;;;;;;12.60;58.72;95093.34;5026813;28;20417;-87
2023/10/31 07:16:48;;;;;;;13.98;8.70;;;;;;;12.75;58.52;95091.66;5043203;28;20384;-87
2023/10/31 07:19:14;;;;;;;12.27;9.30;;;;;;;12.92;58.59;95093.03;5025699;28;20053;-87
2023/10/31 07:21:39;;;;;;;15.88;8.32;;;;;;;13.12;58.33;95083.66;5042681;28;20404;-87
2023/10/31 07:24:05;;;;;;;13.23;8.43;;;;;;;13.34;57.61;95078.91;5026178;28;20633;-87
2023/10/31 07:26:30;;;;;;;14.13;8.05;;;;;;;13.60;57.22;95090.56;5025604;28;20060;-86
2023/10/31 07:28:56;;;;;;;17.95;8.88;;;;;;;13.87;56.39;95091.91;5039624;28;20031;-86
2023/10/31 07:31:22;;;;;;;18.15;9.20;;;;;;;14.11;55.57;95084.63;5061646;28;20503;-87
2023/10/31 07:33:47;;;;;;;12.40;8.77;;;;;;;14.43;55.17;95086.09;5063131;28;20056;-87
2023/10/31 07:36:13;;;;;;;18.05;8.50;;;;;;;14.75;54.27;95076.47;5061923;28;20055;-87
2023/10/31 07:38:38;;;;;;;12.48;7.82;;;;;;;15.09;53.86;95086.47;5062392;28;20028;-88
2023/10/31 07:41:04;;;;;;;11.45;8.15;;;;;;;15.54;52.30;95072.97;5046694;28;20033;-87
2023/10/31 07:43:29;;;;;;;13.98;8.70;;;;;;;16.00;50.66;95073.66;5063091;28;20029;-86
2023/10/31 07:45:55;;;;;;;19.08;8.38;;;;;;;16.48;50.33;95073.69;5046596;28;20470;-88
2023/10/31 07:48:20;;;;;;;11.15;7.78;;;;;;;16.93;49.41;95069.06;5047183;28;20025;-85
2023/10/31 07:50:46;;;;;;;12.23;6.25;;;;;;;17.51;47.54;95073.16;5062808;28;20048;-83
2023/10/31 07:53:11;;;;;;;13.65;6.50;;;;;;;18.06;45.93;95064.22;5049256;28;20033;-86
2023/10/31 07:55:36;;;;;;;10.98;5.75;;;;;;;18.79;44.71;95056.88;5049916;28;20131;-85
2023/10/31 07:58:02;;;;;;;9.45;5.80;;;;;;;19.68;42.39;95065.47;5050729;28;20426;-85
2023/10/31 08:00:27;;;;;;;13.05;6.25;;;;;;;20.68;39.62;95059.81;5050708;28;20488;-87
2023/10/31 08:02:53;;;;;;;12.23;6.75;;;;;;;21.81;36.79;95057.34;5049678;28;20033;-87
2023/10/31 08:05:18;;;;;;;10.40;5.55;;;;;;;23.03;34.72;95058.44;5065505;28;20021;-87
2023/10/31 08:07:44;;;;;;;8.00;5.35;;;;;;;24.28;32.25;95054.31;5049971;28;20441;-86
2023/10/31 08:10:09;;;;;;;9.07;5.57;;;;;;;25.31;30.64;95048.59;5064344;28;20071;-86
2023/10/31 08:12:35;;;;;;;8.88;5.50;;;;;;;26.29;29.76;95053.03;5049064;28;20128;-86
2023/10/31 08:15:01;;;;;;;9.02;5.40;;;;;;;27.16;28.50;95050.41;5064868;28;20021;-86
2023/10/31 08:17:26;;;;;;;8.95;4.60;;;;;;;28.04;27.47;95046.94;5065807;28;20114;-86
2023/10/31 08:19:52;;;;;;;9.40;4.60;;;;;;;28.74;26.28;95051.84;5052150;28;20665;-86
2023/10/31 08:22:17;;;;;;;7.90;5.03;;;;;;;29.51;25.15;95046.59;5028902;28;20637;-86
2023/10/31 08:24:43;;;;;;;8.13;4.55;;;;;;;30.30;24.38;95030.78;5029102;28;20030;-86
2023/10/31 08:27:08;;;;;;;9.68;4.65;;;;;;;31.08;23.25;95024.44;5029327;28;20032;-85
2023/10/31 08:29:33;;;;;;;9.20;5.15;;;;;;;31.63;21.91;95018.78;5032136;28;20035;-85
2023/10/31 08:31:59;;;;;;;9.43;4.95;;;;;;;32.18;21.61;95015.06;5028508;28;20025;-87
2023/10/31 08:34:24;;;;;;;9.15;5.63;;;;;;;32.44;20.81;95018.66;5030330;28;20025;-83
2023/10/31 08:36:50;;;;;;;12.00;6.07;;;;;;;32.96;20.45;95024.47;5044431;28;20350;-86
2023/10/31 08:39:15;;;;;;;9.93;5.03;;;;;;;33.53;19.91;95009.97;5029118;28;20037;-85
2023/10/31 08:41:57;;;;;;;7.43;6.20;;;;;;;34.15;19.48;95009.16;5044535;28;20068;-86
2023/10/31 08:44:23;;;;;;;12.30;4.97;;;;;;;34.76;18.96;94999.63;5027338;28;20052;-86
2023/10/31 08:46:48;;;;;;;11.68;5.45;;;;;;;35.05;18.18;94983.28;5028278;28;20083;-76
2023/10/31 08:49:15;;;;;;;10.98;5.90;;;;;;;35.46;17.77;94974.13;5012365;28;20314;-86
2023/10/31 08:51:41;;;;;;;10.93;5.88;;;;;;;35.81;17.77;94980.22;5028773;28;20086;-85
2023/10/31 08:54:06;;;;;;;8.60;5.88;;;;;;;36.02;17.09;94980.34;5027979;28;20021;-76
2023/10/31 08:56:32;;;;;;;14.38;6.20;;;;;;;36.13;17.25;94978.91;5064048;28;20025;-78
2023/10/31 08:58:57;;;;;;;10.85;5.75;;;;;;;36.29;16.79;94973.59;5046715;28;20105;-84
2023/10/31 09:01:22;;;;;;;14.15;7.18;;;;;;;36.53;17.20;94969.59;5046778;28;20028;-83
2023/10/31 09:03:48;;;;;;;10.50;6.18;;;;;;;36.84;16.75;94960.19;5046465;28;20129;-83
2023/10/31 09:06:14;;;;;;;11.43;5.50;;;;;;;37.10;16.08;94956.25;5047723;28;20094;-82
2023/10/31 09:08:40;;;;;;;12.32;5.85;;;;;;;37.28;15.76;94948.13;5047237;28;20028;-81
2023/10/31 09:11:06;;;;;;;7.90;5.13;;;;;;;37.57;15.85;94956.47;5047256;28;20095;-86
2023/10/31 09:13:32;;;;;;;12.40;5.30;;;;;;;37.90;15.56;94949.94;5064415;28;20076;-83
2023/10/31 09:15:58;;;;;;;9.88;5.53;;;;;;;38.06;15.51;94947.34;5046257;28;20094;-82
2023/10/31 09:18:24;;;;;;;10.93;4.85;;;;;;;38.15;15.44;94944.38;5047214;28;20455;-85
2023/10/31 09:20:50;;;;;;;9.05;4.57;;;;;;;38.52;14.98;94933.00;5047433;28;20036;-85
2023/10/31 09:23:17;;;;;;;8.98;4.97;;;;;;;38.83;15.03;94937.75;5048081;28;20036;-85
2023/10/31 09:25:45;;;;;;;8.65;4.55;;;;;;;39.23;14.19;94927.16;5047209;28;20059;-85
2023/10/31 09:28:10;;;;;;;13.73;5.10;;;;;;;39.56;14.39;94927.56;5062326;28;20033;-78
2023/10/31 09:30:36;;;;;;;10.35;5.00;;;;;;;39.86;13.75;94918.41;5029897;28;20040;-82
2023/10/31 09:33:01;;;;;;;13.07;5.15;;;;;;;39.74;14.05;94910.63;5062104;28;20029;-81
2023/10/31 09:35:27;;;;;;;8.82;4.57;;;;;;;40.00;13.87;94899.06;5062882;28;20117;-79
2023/10/31 09:37:53;;;;;;;11.45;4.80;;;;;;;39.92;13.66;94896.50;5062240;28;20028;-79
2023/10/31 09:40:18;;;;;;;10.55;5.38;;;;;;;39.92;13.76;94898.63;5047244;28;20079;-80
2023/10/31 09:42:45;;;;;;;8.80;4.38;;;;;;;39.98;13.73;94896.84;5063386;28;20028;-79
2023/10/31 09:45:11;;;;;;;10.30;4.50;;;;;;;40.30;13.45;94892.06;5029015;28;20036;-80
2023/10/31 09:47:37;;;;;;;7.22;4.13;;;;;;;40.46;13.25;94879.91;5047984;28;20017;-79
2023/10/31 09:50:03;;;;;;;8.43;4.00;;;;;;;40.66;12.94;94880.97;5061976;28;20021;-80
2023/10/31 09:52:29;;;;;;;10.68;3.97;;;;;;;41.09;12.85;94875.25;5045977;28;20109;-80
2023/10/31 09:54:54;;;;;;;9.30;4.05;;;;;;;41.01;12.76;94869.09;5054446;28;20026;-80
2023/10/31 09:57:20;;;;;;;7.47;3.65;;;;;;;41.30;12.82;94862.59;5025082;28;20392;-81
2023/10/31 09:59:45;;;;;;;8.60;4.07;;;;;;;41.43;12.44;94861.06;5042078;28;20033;-81
2023/10/31 10:02:11;;;;;;;7.82;4.03;;;;;;;41.16;12.59;94852.50;5024897;28;20460;-82
2023/10/31 10:04:37;;;;;;;8.43;3.85;;;;;;;41.24;12.73;94838.47;5042862;28;20026;-80
2023/10/31 10:07:03;;;;;;;8.90;3.85;;;;;;;41.17;12.51;94843.19;5024683;28;20415;-81
2023/10/31 10:09:30;;;;;;;7.88;3.80;;;;;;;40.14;13.33;94830.03;5042529;28;20022;-81
2023/10/31 10:11:58;;;;;;;8.43;3.72;;;;;;;40.16;13.29;94828.00;5024887;28;20065;-81
2023/10/31 10:14:24;;;;;;;9.40;3.85;;;;;;;40.04;13.47;94821.59;5042409;28;20109;-79
2023/10/31 10:16:50;;;;;;;9.63;4.35;;;;;;;39.14;13.92;94805.19;5026204;28;20108;-82
2023/10/31 10:19:19;;;;;;;13.32;4.38;;;;;;;38.55;14.33;94810.41;5025593;28;20520;-80
2023/10/31 10:21:49;;;;;;;9.27;3.78;;;;;;;37.96;14.56;94806.88;5027484;28;20022;-81
2023/10/31 10:24:15;;;;;;;8.07;3.92;;;;;;;38.20;14.72;94805.50;5024607;28;20022;-81
2023/10/31 10:26:40;;;;;;;9.95;4.32;;;;;;;38.13;14.80;94797.13;5025988;28;20377;-81
2023/10/31 10:29:06;;;;;;;7.13;3.80;;;;;;;37.78;15.10;94800.00;5024760;28;20036;-79
2023/10/31 10:31:31;;;;;;;10.20;3.90;;;;;;;37.22;15.66;94793.72;5028426;28;20137;-82
2023/10/31 10:33:58;;;;;;;9.50;3.70;;;;;;;37.28;16.04;94796.22;5039316;28;20032;-86
2023/10/31 10:36:25;;;;;;;11.90;4.60;;;;;;;36.81;16.16;94793.19;5032029;28;20049;-90
2023/10/31 10:38:56;;;;;;;10.40;4.03;;;;;;;36.31;16.55;94784.88;5029735;28;20060;-86
2023/10/31 10:41:26;;;;;;;9.35;4.50;;;;;;;36.00;16.76;94773.50;5042161;28;20108;-83
2023/10/31 10:44:05;;;;;;;12.45;4.32;;;;;;;36.42;15.90;94767.81;5025925;28;20112;-84
2023/10/31 10:46:33;;;;;;;10.52;3.90;;;;;;;36.90;16.08;94757.28;5041038;28;20021;-78
2023/10/31 10:48:59;;;;;;;10.77;4.20;;;;;;;36.62;15.87;94748.31;5026252;28;20034;-80
2023/10/31 10:51:29;;;;;;;11.57;4.35;;;;;;;35.99;16.42;94743.41;5024693;28;20021;-81
2023/10/31 10:54:06;;;;;;;7.70;4.13;;;;;;;36.00;16.54;94742.03;5024217;28;20433;-81
2023/10/31 10:56:38;;;;;;;9.77;3.65;;;;;;;36.33;15.86;94737.13;5029028;28;20032;-80
2023/10/31 10:59:08;;;;;;;9.65;3.90;;;;;;;35.96;16.09;94736.81;5060087;28;20040;-80
2023/10/31 11:01:35;;;;;;;9.07;4.25;;;;;;;35.34;16.52;94736.81;5045065;28;20127;-79
2023/10/31 11:04:01;;;;;;;7.70;3.75;;;;;;;34.77;17.37;94729.91;5043646;28;20068;-80
2023/10/31 11:06:28;;;;;;;9.75;4.00;;;;;;;34.05;17.92;94735.34;5044700;28;20028;-80
2023/10/31 11:08:54;;;;;;;12.40;4.00;;;;;;;33.60;17.83;94723.41;5044504;28;20039;-82
2023/10/31 11:11:20;;;;;;;8.57;3.58;;;;;;;32.93;18.45;94718.22;5060456;28;20028;-83
2023/10/31 11:13:46;;;;;;;8.13;3.17;;;;;;;32.41;18.76;94715.50;5043975;28;20055;-82
2023/10/31 11:16:17;;;;;;;7.93;2.97;;;;;;;31.81;18.98;94711.97;5043056;28;20067;-81
2023/10/31 11:18:43;;;;;;;9.02;3.58;;;;;;;31.50;19.59;94706.59;5044392;28;20040;-81
2023/10/31 11:21:08;;;;;;;9.15;3.22;;;;;;;30.94;19.72;94701.16;5043226;28;20041;-79